Terminal Aerodrome Forecast
Issued by NWS

Home | Current Version | Previous Version | Text Only | Print | Product List | Glossary On
Versions: 1 2 3 4 5 6 7 8 9 10 11 12 13 14 15
000
FTUS41 KBTV 220720 AAA
TAFMSS
TAF AMD
KMSS 220720Z 2207/2306 06004KT P6SM FEW250
      TEMPO 2207/2211 1 1/2SM BR=

USA.gov is the U.S. government's official web portal to all federal, state and local government web resources and services.